createdAt,value
2019-05-07T00:01:14.594Z,100843.16
2019-05-07T00:03:43.710Z,100842.98
2019-05-07T00:06:12.885Z,100845.00
2019-05-07T00:08:44.673Z,100840.81
2019-05-07T00:11:12.833Z,100832.80
2019-05-07T00:13:44.093Z,100834.13
2019-05-07T00:16:12.883Z,100831.46
2019-05-07T00:18:42.876Z,100833.48
2019-05-07T00:21:12.697Z,100824.78
2019-05-07T00:23:43.256Z,100821.14
2019-05-07T00:26:13.254Z,100822.11
2019-05-07T00:28:43.202Z,100823.11
2019-05-07T00:31:12.613Z,100816.94
2019-05-07T00:33:43.198Z,100824.13
2019-05-07T00:36:33.322Z,100819.11
2019-05-07T00:39:19.265Z,100821.28
2019-05-07T00:41:54.817Z,100810.95
2019-05-07T00:44:24.125Z,100809.45
2019-05-07T00:46:52.986Z,100811.28
2019-05-07T00:49:23.677Z,100808.94
2019-05-07T00:51:52.550Z,100803.45
2019-05-07T00:54:23.008Z,100804.78
2019-05-07T00:56:52.274Z,100800.97
2019-05-07T00:59:22.626Z,100799.77
2019-05-07T01:01:52.784Z,100798.30
2019-05-07T01:04:22.918Z,100798.98
2019-05-07T01:06:53.230Z,100800.00
2019-05-07T01:09:22.921Z,100789.14
2019-05-07T01:11:52.519Z,100795.17
2019-05-07T01:14:22.815Z,100785.49
2019-05-07T01:16:52.915Z,100783.14
2019-05-07T01:19:22.084Z,100782.46
2019-05-07T01:21:52.485Z,100779.45
2019-05-07T01:24:23.279Z,100784.80
2019-05-07T01:26:52.996Z,100783.97
2019-05-07T01:29:22.679Z,100786.14
2019-05-07T01:32:00.039Z,100785.31
2019-05-07T01:34:44.053Z,100784.52
2019-05-07T01:37:12.901Z,100781.67
2019-05-07T01:39:42.256Z,100779.83
2019-05-07T01:42:12.739Z,100784.84
2019-05-07T01:44:42.096Z,100783.83
2019-05-07T01:47:13.095Z,100782.82
2019-05-07T01:49:42.300Z,100780.33
2019-05-07T01:52:13.338Z,100779.50
2019-05-07T01:54:42.582Z,100782.17
2019-05-07T01:57:12.231Z,100784.84
2019-05-07T01:59:42.638Z,100784.67
2019-05-07T02:02:31.924Z,100784.20
2019-05-07T02:05:07.381Z,100782.87
2019-05-07T02:07:47.852Z,100787.84
2019-05-07T02:10:36.630Z,100788.20
2019-05-07T02:13:05.583Z,100791.89
2019-05-07T02:15:34.592Z,100787.89
2019-05-07T02:18:03.466Z,100792.58
2019-05-07T02:20:32.586Z,100787.89
2019-05-07T02:23:02.795Z,100788.58
2019-05-07T02:25:32.718Z,100785.58
2019-05-07T02:28:02.286Z,100791.28
2019-05-07T02:30:34.490Z,100794.60
2019-05-07T02:33:03.821Z,100791.61
2019-05-07T02:35:33.448Z,100790.45
2019-05-07T02:38:14.244Z,100784.94
2019-05-07T02:40:53.279Z,100791.97
2019-05-07T02:43:22.779Z,100794.99
2019-05-07T02:46:22.451Z,100792.33
2019-05-07T02:48:53.571Z,100795.32
2019-05-07T02:51:28.126Z,100790.02
2019-05-07T02:54:03.776Z,100787.16
2019-05-07T02:56:33.536Z,100790.34
2019-05-07T02:59:04.126Z,100789.30
2019-05-07T03:01:33.941Z,100788.97
2019-05-07T03:04:03.617Z,100791.64
2019-05-07T03:06:34.167Z,100795.47
2019-05-07T03:09:03.475Z,100794.31
2019-05-07T03:11:33.911Z,100790.34
2019-05-07T03:14:04.182Z,100788.02
2019-05-07T03:16:43.092Z,100793.36
2019-05-07T03:19:04.336Z,100795.02
2019-05-07T03:21:53.859Z,100797.03
2019-05-07T03:24:28.487Z,100792.02
2019-05-07T03:26:57.534Z,100794.67
2019-05-07T03:29:26.530Z,100787.16
2019-05-07T03:31:58.875Z,100789.69
2019-05-07T03:35:07.017Z,100787.19
2019-05-07T03:37:36.602Z,100785.53
2019-05-07T03:40:06.897Z,100784.34
2019-05-07T03:42:35.788Z,100783.63
2019-05-07T03:45:23.017Z,100778.68
2019-05-07T03:47:57.600Z,100774.70
2019-05-07T03:50:26.441Z,100772.36
2019-05-07T03:52:55.345Z,100777.88
2019-05-07T03:55:24.358Z,100773.04
2019-05-07T03:57:53.174Z,100779.69
2019-05-07T04:00:23.920Z,100773.70
2019-05-07T04:02:52.970Z,100773.88
2019-05-07T04:05:23.223Z,100773.05
2019-05-07T04:07:54.024Z,100784.39
2019-05-07T04:10:23.460Z,100773.89
2019-05-07T04:12:53.380Z,100777.74
2019-05-07T04:15:23.322Z,100785.06
2019-05-07T04:17:53.648Z,100789.40
2019-05-07T04:20:23.956Z,100785.05
2019-05-07T04:22:53.686Z,100781.70
2019-05-07T04:25:34.673Z,100787.38
2019-05-07T04:28:23.615Z,100780.99
2019-05-07T04:30:53.489Z,100782.00
2019-05-07T04:33:24.430Z,100783.16
2019-05-07T04:36:08.945Z,100781.29
2019-05-07T04:38:37.914Z,100786.27
2019-05-07T04:41:06.828Z,100778.76
2019-05-07T04:43:35.603Z,100783.59
2019-05-07T04:46:04.541Z,100787.56
2019-05-07T04:48:34.301Z,100784.56
2019-05-07T04:51:05.034Z,100788.39
2019-05-07T04:53:33.916Z,100788.89
2019-05-07T04:56:03.496Z,100781.49
2019-05-07T04:58:33.912Z,100781.30
2019-05-07T05:01:04.647Z,100788.58
2019-05-07T05:03:35.579Z,100785.66
2019-05-07T05:06:04.633Z,100786.08
2019-05-07T05:08:33.574Z,100789.26
2019-05-07T05:11:03.314Z,100785.62
2019-05-07T05:13:33.346Z,100787.77
2019-05-07T05:16:22.421Z,100786.53
2019-05-07T05:18:51.763Z,100786.53
2019-05-07T05:21:45.825Z,100787.50
2019-05-07T05:24:19.434Z,100784.14
2019-05-07T05:26:48.737Z,100791.56
2019-05-07T05:29:18.644Z,100785.77
2019-05-07T05:31:47.721Z,100780.42
2019-05-07T05:34:17.532Z,100782.61
2019-05-07T05:36:47.914Z,100786.08
2019-05-07T05:39:16.912Z,100793.25
2019-05-07T05:41:47.828Z,100793.16
2019-05-07T05:44:25.169Z,100790.84
2019-05-07T05:46:55.761Z,100801.55
2019-05-07T05:49:24.847Z,100794.73
2019-05-07T05:52:13.795Z,100794.45
2019-05-07T05:54:47.569Z,100794.70
2019-05-07T05:57:26.582Z,100793.69
2019-05-07T06:00:21.940Z,100795.84
2019-05-07T06:02:59.318Z,100794.51
2019-05-07T06:05:47.305Z,100798.56
2019-05-07T06:08:34.023Z,100788.32
2019-05-07T06:11:17.844Z,100789.55
2019-05-07T06:13:57.539Z,100789.63
2019-05-07T06:16:32.754Z,100792.11
2019-05-07T06:19:18.036Z,100790.53
2019-05-07T06:22:04.919Z,100789.12
2019-05-07T06:24:56.512Z,100798.53
2019-05-07T06:27:26.191Z,100795.53
2019-05-07T06:29:55.257Z,100790.97
2019-05-07T06:32:24.729Z,100790.97
2019-05-07T06:34:53.718Z,100789.41
2019-05-07T06:37:22.983Z,100792.09
2019-05-07T06:40:03.422Z,100793.91
2019-05-07T06:42:52.232Z,100787.72
2019-05-07T06:45:35.412Z,100789.21
2019-05-07T06:48:04.207Z,100791.42
2019-05-07T06:50:33.157Z,100783.93
2019-05-07T06:53:02.828Z,100783.05
2019-05-07T06:55:32.515Z,100785.20
2019-05-07T06:58:02.588Z,100785.80
2019-05-07T07:01:06.943Z,100788.00
2019-05-07T07:03:42.058Z,100792.12
2019-05-07T07:06:19.096Z,100787.70
2019-05-07T07:09:07.071Z,100790.98
2019-05-07T07:11:45.908Z,100781.23
2019-05-07T07:14:14.728Z,100790.80
2019-05-07T07:16:43.854Z,100788.63
2019-05-07T07:19:12.796Z,100789.88
2019-05-07T07:21:42.221Z,100790.41
2019-05-07T07:24:12.668Z,100786.64
2019-05-07T07:26:42.284Z,100785.73
2019-05-07T07:29:13.003Z,100780.64
2019-05-07T07:31:49.687Z,100791.52
2019-05-07T07:34:18.600Z,100787.67
2019-05-07T07:37:08.430Z,100782.19
2019-05-07T07:39:32.815Z,100784.59
2019-05-07T07:42:03.443Z,100787.49
2019-05-07T07:44:32.979Z,100796.61
2019-05-07T07:47:02.633Z,100782.47
2019-05-07T07:49:32.914Z,100776.36
2019-05-07T07:52:03.167Z,100774.91
2019-05-07T07:54:32.377Z,100771.81
2019-05-07T07:57:14.597Z,100776.34
2019-05-07T08:00:14.431Z,100770.68
2019-05-07T08:02:47.013Z,100767.92
2019-05-07T08:05:16.250Z,100770.21
2019-05-07T08:07:45.327Z,100767.72
2019-05-07T08:10:14.772Z,100762.61
2019-05-07T08:12:44.151Z,100758.46
2019-05-07T08:15:20.361Z,100758.42
2019-05-07T08:17:44.768Z,100753.66
2019-05-07T08:20:14.509Z,100751.91
2019-05-07T08:22:43.555Z,100757.78
2019-05-07T08:25:12.694Z,100743.92
2019-05-07T08:27:42.111Z,100743.92
2019-05-07T08:30:14.301Z,100749.88
2019-05-07T08:32:52.929Z,100743.45
2019-05-07T08:35:32.675Z,100744.34
2019-05-07T08:38:02.277Z,100741.61
2019-05-07T08:40:32.581Z,100745.57
2019-05-07T08:43:03.233Z,100743.19
2019-05-07T08:46:11.871Z,100740.73
2019-05-07T08:48:45.946Z,100734.73
2019-05-07T08:51:14.974Z,100730.34
2019-05-07T08:53:43.849Z,100738.20
2019-05-07T08:56:12.905Z,100736.02
2019-05-07T08:58:42.141Z,100724.91
2019-05-07T09:01:11.885Z,100731.27
2019-05-07T09:03:43.716Z,100727.14
2019-05-07T09:06:14.470Z,100728.61
2019-05-07T09:08:43.711Z,100722.15
2019-05-07T09:11:13.301Z,100732.77
2019-05-07T09:13:42.665Z,100722.69
2019-05-07T09:16:12.953Z,100727.52
2019-05-07T09:18:42.373Z,100720.96
2019-05-07T09:21:12.497Z,100718.43
2019-05-07T09:23:42.346Z,100714.69
2019-05-07T09:26:13.220Z,100716.70
2019-05-07T09:28:52.521Z,100717.53
2019-05-07T09:31:29.002Z,100709.78
2019-05-07T09:33:58.042Z,100706.55
2019-05-07T09:36:35.869Z,100707.01
2019-05-07T09:39:06.274Z,100707.69
2019-05-07T09:41:35.194Z,100703.25
2019-05-07T09:44:04.214Z,100692.29
2019-05-07T09:46:33.133Z,100691.77
2019-05-07T09:49:03.122Z,100687.80
2019-05-07T09:51:32.384Z,100683.95
2019-05-07T09:54:02.546Z,100685.23
2019-05-07T09:56:32.023Z,100685.47
2019-05-07T09:59:02.190Z,100685.47
2019-05-07T10:01:31.887Z,100678.50
2019-05-07T10:04:02.657Z,100680.06
2019-05-07T10:06:32.147Z,100680.06
2019-05-07T10:09:02.901Z,100677.30
2019-05-07T10:11:43.589Z,100674.96
2019-05-07T10:14:12.699Z,100676.81
2019-05-07T10:16:52.402Z,100679.91
2019-05-07T10:19:22.277Z,100675.13
2019-05-07T10:21:52.934Z,100676.03
2019-05-07T10:24:22.347Z,100675.19
2019-05-07T10:26:53.154Z,100671.95
2019-05-07T10:29:22.749Z,100665.87
2019-05-07T10:31:52.697Z,100659.41
2019-05-07T10:34:22.888Z,100662.94
2019-05-07T10:36:52.317Z,100662.45
2019-05-07T10:39:22.083Z,100663.58
2019-05-07T10:41:51.028Z,100657.47
2019-05-07T10:44:22.864Z,100656.50
2019-05-07T10:47:12.002Z,100657.66
2019-05-07T10:49:44.826Z,100657.66
2019-05-07T10:52:13.777Z,100664.44
2019-05-07T10:54:42.652Z,100659.65
2019-05-07T10:57:11.995Z,100659.02
2019-05-07T10:59:42.239Z,100656.46
2019-05-07T11:02:16.649Z,100653.13
2019-05-07T11:04:46.002Z,100657.02
2019-05-07T11:07:15.227Z,100648.66
2019-05-07T11:09:44.255Z,100645.53
2019-05-07T11:12:13.157Z,100646.89
2019-05-07T11:14:42.272Z,100643.81
2019-05-07T11:17:32.653Z,100646.61
2019-05-07T11:20:01.648Z,100642.59
2019-05-07T11:22:32.738Z,100635.92
2019-05-07T11:25:03.007Z,100631.91
2019-05-07T11:27:32.972Z,100627.56
2019-05-07T11:30:02.735Z,100622.80
2019-05-07T11:32:32.216Z,100622.28
2019-05-07T11:35:03.101Z,100616.43
2019-05-07T11:37:31.880Z,100614.79
2019-05-07T11:40:03.035Z,100509.79
2019-05-07T11:43:05.902Z,100604.50
2019-05-07T11:45:41.911Z,100602.63
2019-05-07T11:48:13.310Z,100601.45
2019-05-07T11:51:04.417Z,100595.35
2019-05-07T11:53:33.517Z,100589.37
2019-05-07T11:56:02.722Z,100581.73
2019-05-07T11:58:32.547Z,100579.13
2019-05-07T12:01:22.431Z,100578.07
2019-05-07T12:03:52.043Z,100575.83
2019-05-07T12:06:21.731Z,100576.93
2019-05-07T12:08:52.183Z,100571.92
2019-05-07T12:11:21.845Z,100574.77
2019-05-07T12:13:52.353Z,100575.49
2019-05-07T12:16:22.367Z,100561.84
2019-05-07T12:18:52.418Z,100567.02
2019-05-07T12:21:24.325Z,100562.69
2019-05-07T12:23:53.011Z,100563.10
2019-05-07T12:26:22.303Z,100562.36
2019-05-07T12:28:52.190Z,100557.66
2019-05-07T12:31:39.004Z,100553.05
2019-05-07T12:34:15.642Z,100550.66
2019-05-07T12:36:44.697Z,100542.98
2019-05-07T12:39:13.767Z,100544.11
2019-05-07T12:41:42.807Z,100540.12
2019-05-07T12:44:12.938Z,100545.37
2019-05-07T12:46:42.575Z,100538.37
2019-05-07T12:49:12.087Z,100537.08
2019-05-07T12:51:55.938Z,100537.63
2019-05-07T12:54:39.115Z,100538.45
2019-05-07T12:57:08.196Z,100528.70
2019-05-07T12:59:37.176Z,100531.44
2019-05-07T13:02:37.122Z,100526.78
2019-05-07T13:04:54.692Z,100518.80
2019-05-07T13:07:41.812Z,100520.95
2019-05-07T13:10:10.994Z,100520.95
2019-05-07T13:12:41.909Z,100506.86
2019-05-07T13:15:23.994Z,100394.52
2019-05-07T13:17:41.784Z,100506.16
2019-05-07T13:20:12.107Z,100503.95
2019-05-07T13:22:42.691Z,100502.59
2019-05-07T13:25:12.686Z,100501.31
2019-05-07T13:27:42.914Z,100505.67
2019-05-07T13:30:12.441Z,100504.16
2019-05-07T13:32:45.019Z,100502.53
2019-05-07T13:35:14.777Z,100496.62
2019-05-07T13:37:49.067Z,100496.99
2019-05-07T13:40:25.168Z,100491.65
2019-05-07T13:43:12.446Z,100490.31
2019-05-07T13:45:45.678Z,100487.60
2019-05-07T13:48:17.838Z,100484.58
2019-05-07T13:50:47.585Z,100482.70
2019-05-07T13:53:16.970Z,100477.88
2019-05-07T13:55:46.033Z,100474.05
2019-05-07T13:58:15.315Z,100472.19
2019-05-07T14:00:56.475Z,100463.36
2019-05-07T14:03:25.522Z,100466.28
2019-05-07T14:05:54.482Z,100460.19
2019-05-07T14:08:24.845Z,100462.12
2019-05-07T14:10:54.113Z,100455.73
2019-05-07T14:13:22.970Z,100449.22
2019-05-07T14:16:08.421Z,100448.34
2019-05-07T14:18:38.990Z,100447.66
2019-05-07T14:21:08.784Z,100441.83
2019-05-07T14:23:37.766Z,100445.34
2019-05-07T14:26:06.919Z,100442.92
2019-05-07T14:28:35.874Z,100440.87
2019-05-07T14:31:04.881Z,100441.91
2019-05-07T14:33:55.708Z,100437.80
2019-05-07T14:36:31.842Z,100441.36
2019-05-07T14:39:02.354Z,100434.66
2019-05-07T14:41:32.581Z,100435.95
2019-05-07T14:44:07.694Z,100429.95
2019-05-07T14:46:47.322Z,100424.05
2019-05-07T14:49:07.995Z,100421.64
2019-05-07T14:51:37.038Z,100420.42
2019-05-07T14:54:06.086Z,100416.59
2019-05-07T14:56:35.331Z,100421.30
2019-05-07T14:59:04.632Z,100418.30
2019-05-07T15:01:34.089Z,100410.66
2019-05-07T15:04:03.334Z,100412.50
2019-05-07T15:06:32.607Z,100402.98
2019-05-07T15:09:01.981Z,100405.95
2019-05-07T15:11:31.827Z,100390.77
2019-05-07T15:14:02.659Z,100390.44
2019-05-07T15:16:32.051Z,100393.93
2019-05-07T15:19:01.758Z,100391.63
2019-05-07T15:21:32.584Z,100391.06
2019-05-07T15:24:02.430Z,100387.23
2019-05-07T15:26:32.644Z,100385.48
2019-05-07T15:29:11.877Z,100387.08
2019-05-07T15:31:57.996Z,100388.14
2019-05-07T15:34:26.991Z,100389.44
2019-05-07T15:36:56.078Z,100381.23
2019-05-07T15:39:25.187Z,100381.25
2019-05-07T15:41:54.232Z,100380.38
2019-05-07T15:44:23.307Z,100375.27
2019-05-07T15:46:54.699Z,100379.37
2019-05-07T15:49:23.623Z,100372.48
2019-05-07T15:51:54.178Z,100367.88
2019-05-07T15:54:23.151Z,100368.66
2019-05-07T15:56:54.645Z,100367.13
2019-05-07T15:59:23.494Z,100366.45
2019-05-07T16:01:54.888Z,100358.70
2019-05-07T16:04:25.901Z,100356.05
2019-05-07T16:06:56.285Z,100357.20
2019-05-07T16:09:26.807Z,100353.06
2019-05-07T16:11:56.316Z,100353.70
2019-05-07T16:14:27.116Z,100349.42
2019-05-07T16:17:03.370Z,100343.05
2019-05-07T16:19:32.490Z,100347.11
2019-05-07T16:22:06.492Z,100335.97
2019-05-07T16:24:35.284Z,100340.48
2019-05-07T16:27:06.323Z,100337.33
2019-05-07T16:29:35.975Z,100328.63
2019-05-07T16:32:05.342Z,100328.55
2019-05-07T16:34:34.726Z,100325.78
2019-05-07T16:37:07.176Z,100324.80
2019-05-07T16:39:34.624Z,100320.65
2019-05-07T16:42:03.606Z,100315.44
2019-05-07T16:44:33.091Z,100319.32
2019-05-07T16:47:02.812Z,100315.34
2019-05-07T16:49:31.983Z,100271.58
2019-05-07T16:52:01.821Z,100314.98
2019-05-07T16:54:30.842Z,100313.02
2019-05-07T16:57:17.636Z,100298.33
2019-05-07T16:59:46.630Z,100300.51
2019-05-07T17:02:20.754Z,100303.14
2019-05-07T17:05:07.811Z,100301.70
2019-05-07T17:07:42.180Z,100301.19
2019-05-07T17:10:11.726Z,100301.97
2019-05-07T17:12:42.599Z,100296.85
2019-05-07T17:15:13.045Z,100298.58
2019-05-07T17:17:42.743Z,100290.47
2019-05-07T17:20:12.765Z,100297.19
2019-05-07T17:22:42.748Z,100297.39
2019-05-07T17:25:29.939Z,100300.38
2019-05-07T17:27:59.965Z,100303.50
2019-05-07T17:30:29.052Z,100294.68
2019-05-07T17:32:58.210Z,100291.98
2019-05-07T17:35:27.100Z,100293.41
2019-05-07T17:38:06.454Z,100288.39
2019-05-07T17:40:26.863Z,100295.83
2019-05-07T17:42:55.770Z,100297.02
2019-05-07T17:45:25.963Z,100297.08
2019-05-07T17:47:55.129Z,100286.20
2019-05-07T17:50:28.841Z,100289.19
2019-05-07T17:52:57.890Z,100290.08
2019-05-07T17:55:26.983Z,100283.64
2019-05-07T17:57:55.997Z,100277.97
2019-05-07T18:00:25.541Z,100273.34
2019-05-07T18:03:16.186Z,100267.04
2019-05-07T18:05:45.360Z,100271.06
2019-05-07T18:08:14.324Z,100268.09
2019-05-07T18:10:43.377Z,100262.04
2019-05-07T18:13:12.694Z,100262.27
2019-05-07T18:15:42.779Z,100268.41
2019-05-07T18:18:12.810Z,100261.88
2019-05-07T18:20:42.265Z,100269.41
2019-05-07T18:23:16.671Z,100263.45
2019-05-07T18:25:42.826Z,100261.58
2019-05-07T18:28:12.495Z,100267.06
2019-05-07T18:30:41.386Z,100261.63
2019-05-07T18:33:33.574Z,100269.44
2019-05-07T18:36:02.964Z,100267.69
2019-05-07T18:38:32.973Z,100269.50
2019-05-07T18:41:02.756Z,100274.27
2019-05-07T18:43:33.172Z,100271.42
2019-05-07T18:46:02.487Z,100270.87
2019-05-07T18:48:31.498Z,100261.58
2019-05-07T18:51:02.540Z,100260.08
2019-05-07T18:53:31.788Z,100259.69
2019-05-07T18:56:01.725Z,100259.62
2019-05-07T18:58:31.959Z,100265.66
2019-05-07T19:01:04.361Z,100267.90
2019-05-07T19:03:34.069Z,100260.47
2019-05-07T19:06:03.430Z,100258.36
2019-05-07T19:08:35.341Z,100258.06
2019-05-07T19:11:05.764Z,100258.00
2019-05-07T19:13:34.162Z,100259.87
2019-05-07T19:16:03.246Z,100260.75
2019-05-07T19:18:32.382Z,100253.56
2019-05-07T19:21:01.388Z,100258.05
2019-05-07T19:23:30.285Z,100254.30
2019-05-07T19:25:59.268Z,100262.95
2019-05-07T19:28:28.297Z,100267.13
2019-05-07T19:30:57.215Z,100263.30
2019-05-07T19:33:27.263Z,100267.69
2019-05-07T19:35:56.369Z,100261.55
2019-05-07T19:38:25.404Z,100263.65
2019-05-07T19:40:54.444Z,100255.70
2019-05-07T19:43:23.424Z,100248.55
2019-05-07T19:45:52.548Z,100244.86
2019-05-07T19:48:23.157Z,100247.59
2019-05-07T19:50:52.791Z,100257.14
2019-05-07T19:53:23.547Z,100251.54
2019-05-07T19:56:14.433Z,100247.50
2019-05-07T19:58:43.538Z,100242.42
2019-05-07T20:01:14.573Z,100071.37
2019-05-07T20:03:43.621Z,100242.34
2019-05-07T20:06:13.021Z,100240.69
2019-05-07T20:08:43.604Z,100247.42
2019-05-07T20:11:26.140Z,100250.41
2019-05-07T20:13:55.052Z,100255.20
2019-05-07T20:16:23.912Z,100258.19
2019-05-07T20:18:52.890Z,100252.30
2019-05-07T20:21:22.920Z,100252.17
2019-05-07T20:23:52.804Z,100241.45
2019-05-07T20:26:23.209Z,100240.67
2019-05-07T20:28:52.816Z,100236.50
2019-05-07T20:31:22.504Z,100225.47
2019-05-07T20:33:53.070Z,100229.52
2019-05-07T20:36:22.277Z,100225.72
2019-05-07T20:38:52.187Z,100223.14
2019-05-07T20:41:23.294Z,100219.41
2019-05-07T20:43:52.515Z,100213.56
2019-05-07T20:46:21.465Z,100212.02
2019-05-07T20:48:52.490Z,100208.70
2019-05-07T20:51:23.098Z,100210.43
2019-05-07T20:54:12.812Z,100206.88
2019-05-07T20:56:46.695Z,100202.12
2019-05-07T20:59:15.689Z,100206.48
2019-05-07T21:01:44.721Z,100202.67
2019-05-07T21:04:13.622Z,100200.09
2019-05-07T21:06:43.311Z,100202.34
2019-05-07T21:09:12.754Z,100200.06
2019-05-07T21:11:43.101Z,100169.33
2019-05-07T21:14:12.313Z,100191.01
2019-05-07T21:16:42.493Z,100181.41
2019-05-07T21:19:12.831Z,100178.81
2019-05-07T21:21:42.329Z,100176.77
2019-05-07T21:24:13.014Z,100170.55
2019-05-07T21:26:42.523Z,100171.89
2019-05-07T21:29:13.690Z,100170.03
2019-05-07T21:31:43.057Z,100167.69
2019-05-07T21:34:12.669Z,100164.37
2019-05-07T21:36:43.261Z,100158.61
2019-05-07T21:39:13.213Z,100162.94
2019-05-07T21:41:42.797Z,100166.87
2019-05-07T21:44:12.151Z,100175.52
2019-05-07T21:46:42.552Z,100171.07
2019-05-07T21:49:12.343Z,100171.58
2019-05-07T21:51:41.363Z,100168.72
2019-05-07T21:54:25.624Z,100171.19
2019-05-07T21:57:15.421Z,100165.61
2019-05-07T21:59:44.303Z,100166.95
2019-05-07T22:02:18.257Z,100168.72
2019-05-07T22:04:47.182Z,100156.84
2019-05-07T22:07:17.559Z,100160.16
2019-05-07T22:09:46.470Z,100156.53
2019-05-07T22:12:15.410Z,100151.30
2019-05-07T22:14:44.321Z,100153.55
2019-05-07T22:17:13.292Z,100150.56
2019-05-07T22:19:42.758Z,100141.78
2019-05-07T22:22:12.367Z,100141.27
2019-05-07T22:24:42.603Z,100134.87
2019-05-07T22:27:12.929Z,100131.57
2019-05-07T22:29:42.166Z,100134.38
2019-05-07T22:32:29.063Z,100134.45
2019-05-07T22:35:06.787Z,100132.61
2019-05-07T22:37:35.883Z,100113.41
2019-05-07T22:40:05.658Z,100121.45
2019-05-07T22:42:34.775Z,100109.72
2019-05-07T22:45:06.055Z,100109.08
2019-05-07T22:47:35.083Z,100096.92
2019-05-07T22:50:04.530Z,100093.33
2019-05-07T22:52:33.512Z,100087.84
2019-05-07T22:55:02.778Z,100080.53
2019-05-07T22:57:42.057Z,100080.22
2019-05-07T23:00:15.041Z,100075.16
2019-05-07T23:02:44.064Z,100065.03
2019-05-07T23:05:14.048Z,100068.74
2019-05-07T23:07:44.000Z,100072.23
2019-05-07T23:10:13.408Z,100059.67
2019-05-07T23:12:42.655Z,100059.14
2019-05-07T23:15:11.989Z,100049.67
2019-05-07T23:17:41.556Z,100043.49
2019-05-07T23:20:10.624Z,100036.69
2019-05-07T23:22:39.559Z,100040.17
2019-05-07T23:25:08.609Z,100031.50
2019-05-07T23:27:37.484Z,100033.28
2019-05-07T23:30:06.779Z,100028.64
2019-05-07T23:32:35.784Z,100028.46
2019-05-07T23:35:04.815Z,100031.02
2019-05-07T23:37:33.670Z,100025.68
2019-05-07T23:40:07.205Z,100015.78
2019-05-07T23:42:37.458Z,100015.78
2019-05-07T23:45:06.753Z,100015.78
2019-05-07T23:47:35.688Z,100022.17
2019-05-07T23:50:05.099Z,100018.36
2019-05-07T23:52:33.990Z,100020.23
2019-05-07T23:55:03.000Z,100012.80
2019-05-07T23:57:32.646Z,100013.02
